createdAt,value
2022-11-21T00:00:39.907Z,6.93
2022-11-21T00:03:06.425Z,9.52
2022-11-21T00:05:33.137Z,7.13
2022-11-21T00:07:59.678Z,7.88
2022-11-21T00:10:26.296Z,7.82
2022-11-21T00:12:56.725Z,7.45
2022-11-21T00:15:24.789Z,7.63
2022-11-21T00:17:51.693Z,9.45
2022-11-21T00:20:19.461Z,7.53
2022-11-21T00:22:46.283Z,8.07
2022-11-21T00:25:13.162Z,7.97
2022-11-21T00:27:39.882Z,6.75
2022-11-21T00:30:08.437Z,6.75
2022-11-21T00:32:34.965Z,6.90
2022-11-21T00:35:01.454Z,7.80
2022-11-21T00:37:28.091Z,6.28
2022-11-21T00:39:54.530Z,7.47
2022-11-21T00:42:20.987Z,6.97
2022-11-21T00:44:47.514Z,7.20
2022-11-21T00:47:14.039Z,6.43
2022-11-21T00:49:40.501Z,6.95
2022-11-21T00:52:06.974Z,8.85
2022-11-21T00:54:33.448Z,7.72
2022-11-21T00:57:00.105Z,7.00
2022-11-21T00:59:26.576Z,6.57
2022-11-21T01:01:53.031Z,8.75
2022-11-21T01:04:19.633Z,6.85
2022-11-21T01:06:46.153Z,6.68
2022-11-21T01:09:12.605Z,7.10
2022-11-21T01:11:39.045Z,6.68
2022-11-21T01:14:05.557Z,6.78
2022-11-21T01:16:32.230Z,6.18
2022-11-21T01:18:58.743Z,6.80
2022-11-21T01:21:30.267Z,7.97
2022-11-21T01:23:59.168Z,7.82
2022-11-21T01:26:28.018Z,7.07
2022-11-21T01:28:54.999Z,7.10
2022-11-21T01:31:23.638Z,6.82
2022-11-21T01:33:50.087Z,6.65
2022-11-21T01:36:18.959Z,9.43
2022-11-21T01:38:47.458Z,7.57
2022-11-21T01:41:16.733Z,7.97
2022-11-21T01:43:43.199Z,9.05
2022-11-21T01:46:09.538Z,7.95
2022-11-21T01:48:55.971Z,9.43
2022-11-21T01:51:32.451Z,9.80
2022-11-21T01:54:00.384Z,7.82
2022-11-21T01:56:28.983Z,7.75
2022-11-21T01:58:57.398Z,7.05
2022-11-21T02:01:24.198Z,8.95
2022-11-21T02:03:51.289Z,7.40
2022-11-21T02:06:17.764Z,8.80
2022-11-21T02:08:45.283Z,7.43
2022-11-21T02:11:26.054Z,7.82
2022-11-21T02:13:52.879Z,9.85
2022-11-21T02:16:19.320Z,9.02
2022-11-21T02:18:45.885Z,10.20
2022-11-21T02:21:50.888Z,11.50
2022-11-21T02:24:23.506Z,11.32
2022-11-21T02:26:50.226Z,6.78
2022-11-21T02:29:17.040Z,8.02
2022-11-21T02:31:43.476Z,9.73
2022-11-21T02:34:09.945Z,9.52
2022-11-21T02:37:02.672Z,10.90
2022-11-21T02:39:34.313Z,10.57
2022-11-21T02:42:27.967Z,8.55
2022-11-21T02:45:18.770Z,11.15
2022-11-21T02:47:45.309Z,6.68
2022-11-21T02:50:27.561Z,8.63
2022-11-21T02:52:55.375Z,9.02
2022-11-21T02:55:22.915Z,8.85
2022-11-21T02:57:49.426Z,7.55
2022-11-21T03:00:16.293Z,7.43
2022-11-21T03:02:42.833Z,8.75
2022-11-21T03:05:11.494Z,8.27
2022-11-21T03:07:38.152Z,9.02
2022-11-21T03:10:05.273Z,10.30
2022-11-21T03:12:31.752Z,10.48
2022-11-21T03:14:58.209Z,9.18
2022-11-21T03:17:24.668Z,11.57
2022-11-21T03:19:51.127Z,11.13
2022-11-21T03:22:17.574Z,9.27
2022-11-21T03:24:44.042Z,10.52
2022-11-21T03:27:10.500Z,8.95
2022-11-21T03:29:36.951Z,8.90
2022-11-21T03:32:03.453Z,9.00
2022-11-21T03:34:30.200Z,8.88
2022-11-21T03:36:56.778Z,8.80
2022-11-21T03:39:23.229Z,8.20
2022-11-21T03:41:49.732Z,10.02
2022-11-21T03:44:16.244Z,9.27
2022-11-21T03:46:44.266Z,10.13
2022-11-21T03:49:11.299Z,10.35
2022-11-21T03:51:37.967Z,11.40
2022-11-21T03:54:04.733Z,9.43
2022-11-21T03:56:31.220Z,9.00
2022-11-21T03:58:57.694Z,8.43
2022-11-21T04:01:24.317Z,8.35
2022-11-21T04:03:51.251Z,10.13
2022-11-21T04:06:19.636Z,9.25
2022-11-21T04:08:46.485Z,7.65
2022-11-21T04:11:13.281Z,7.00
2022-11-21T04:13:39.788Z,7.07
2022-11-21T04:16:06.391Z,7.38
2022-11-21T04:18:34.128Z,10.30
2022-11-21T04:21:02.966Z,9.98
2022-11-21T04:23:29.553Z,8.18
2022-11-21T04:25:56.006Z,8.20
2022-11-21T04:28:22.454Z,9.40
2022-11-21T04:30:49.060Z,7.68
2022-11-21T04:33:17.100Z,7.68
2022-11-21T04:35:44.353Z,6.82
2022-11-21T04:38:11.495Z,6.38
2022-11-21T04:40:38.283Z,7.40
2022-11-21T04:43:04.818Z,6.18
2022-11-21T04:45:31.679Z,6.53
2022-11-21T04:47:58.261Z,6.72
2022-11-21T04:50:24.776Z,5.90
2022-11-21T04:52:52.117Z,5.40
2022-11-21T04:55:19.451Z,5.55
2022-11-21T04:57:46.328Z,4.78
2022-11-21T05:00:14.291Z,5.32
2022-11-21T05:02:40.807Z,4.72
2022-11-21T05:05:07.460Z,5.10
2022-11-21T05:07:33.966Z,4.88
2022-11-21T05:10:00.503Z,4.68
2022-11-21T05:12:45.597Z,4.32
2022-11-21T05:15:12.058Z,3.70
2022-11-21T05:17:38.674Z,4.25
2022-11-21T05:20:05.599Z,3.83
2022-11-21T05:22:32.045Z,4.78
2022-11-21T05:24:58.574Z,4.10
2022-11-21T05:27:25.037Z,3.53
2022-11-21T05:29:51.506Z,5.53
2022-11-21T05:32:17.968Z,3.70
2022-11-21T05:34:44.523Z,5.03
2022-11-21T05:37:10.969Z,3.95
2022-11-21T05:39:37.438Z,4.53
2022-11-21T05:42:04.062Z,4.40
2022-11-21T05:44:30.948Z,3.33
2022-11-21T05:46:57.561Z,4.30
2022-11-21T05:49:24.055Z,5.13
2022-11-21T05:51:50.524Z,4.88
2022-11-21T05:54:17.290Z,5.18
2022-11-21T05:56:43.740Z,5.05
2022-11-21T05:59:13.288Z,5.15
2022-11-21T06:01:58.345Z,4.05
2022-11-21T06:04:24.958Z,4.63
2022-11-21T06:06:51.533Z,5.43
2022-11-21T06:09:17.985Z,4.90
2022-11-21T06:11:44.453Z,5.90
2022-11-21T06:14:11.013Z,4.60
2022-11-21T06:16:37.612Z,4.60
2022-11-21T06:19:04.117Z,4.32
2022-11-21T06:21:30.592Z,4.40
2022-11-21T06:23:58.165Z,6.22
2022-11-21T06:26:26.199Z,4.60
2022-11-21T06:28:53.022Z,4.93
2022-11-21T06:31:24.633Z,4.50
2022-11-21T06:33:55.674Z,4.32
2022-11-21T06:36:22.225Z,4.25
2022-11-21T06:38:48.910Z,4.10
2022-11-21T06:41:20.393Z,4.18
2022-11-21T06:43:46.917Z,4.10
2022-11-21T06:46:14.247Z,4.80
2022-11-21T06:48:41.491Z,4.20
2022-11-21T06:51:11.866Z,3.92
2022-11-21T06:53:38.348Z,4.45
2022-11-21T06:56:05.166Z,5.78
2022-11-21T06:58:31.803Z,6.78
2022-11-21T07:00:58.610Z,4.45
2022-11-21T07:03:25.063Z,5.90
2022-11-21T07:05:52.522Z,4.82
2022-11-21T07:08:19.004Z,5.95
2022-11-21T07:11:10.195Z,4.10
2022-11-21T07:13:32.464Z,3.83
2022-11-21T07:16:10.169Z,5.72
2022-11-21T07:18:36.967Z,4.68
2022-11-21T07:21:05.399Z,3.75
2022-11-21T07:23:32.812Z,4.45
2022-11-21T07:26:03.866Z,3.92
2022-11-21T07:28:30.755Z,3.60
2022-11-21T07:30:57.793Z,3.70
2022-11-21T07:33:24.347Z,4.20
2022-11-21T07:35:50.826Z,4.03
2022-11-21T07:38:17.302Z,4.55
2022-11-21T07:40:43.840Z,4.25
2022-11-21T07:43:11.173Z,3.35
2022-11-21T07:45:38.046Z,3.50
2022-11-21T07:48:07.154Z,6.03
2022-11-21T07:50:33.918Z,4.18
2022-11-21T07:53:07.827Z,5.32
2022-11-21T07:55:40.183Z,6.15
2022-11-21T07:58:12.838Z,5.43
2022-11-21T08:00:42.563Z,8.85
2022-11-21T08:03:09.129Z,8.43
2022-11-21T08:05:40.075Z,5.70
2022-11-21T08:08:07.055Z,7.35
2022-11-21T08:10:33.861Z,7.40
2022-11-21T08:13:00.346Z,7.97
2022-11-21T08:15:26.805Z,4.50
2022-11-21T08:17:53.269Z,6.05
2022-11-21T08:20:19.750Z,4.18
2022-11-21T08:22:46.228Z,5.40
2022-11-21T08:25:12.750Z,6.20
2022-11-21T08:27:40.079Z,6.95
2022-11-21T08:30:08.169Z,15.57
2022-11-21T08:32:34.739Z,6.53
2022-11-21T08:35:01.321Z,8.52
2022-11-21T08:37:30.994Z,4.00
2022-11-21T08:40:00.970Z,4.35
2022-11-21T08:42:27.707Z,6.63
2022-11-21T08:44:54.159Z,6.43
2022-11-21T08:47:20.767Z,7.30
2022-11-21T08:49:48.119Z,7.93
2022-11-21T08:52:17.155Z,5.40
2022-11-21T08:54:44.521Z,5.93
2022-11-21T08:57:11.210Z,4.10
2022-11-21T08:59:37.721Z,5.85
2022-11-21T09:02:04.302Z,3.60
2022-11-21T09:04:30.898Z,5.45
2022-11-21T09:06:57.491Z,3.42
2022-11-21T09:09:25.587Z,12.55
2022-11-21T09:11:52.344Z,3.00
2022-11-21T09:14:37.225Z,5.60
2022-11-21T09:17:25.026Z,7.03
2022-11-21T09:19:51.490Z,3.50
2022-11-21T09:22:17.964Z,3.42
2022-11-21T09:24:44.405Z,4.63
2022-11-21T09:27:10.858Z,5.13
2022-11-21T09:29:37.311Z,4.20
2022-11-21T09:32:03.768Z,8.18
2022-11-21T09:34:31.739Z,4.22
2022-11-21T09:36:58.344Z,5.35
2022-11-21T09:39:25.218Z,4.75
2022-11-21T09:42:34.274Z,5.25
2022-11-21T09:45:07.008Z,8.43
2022-11-21T09:47:37.026Z,5.20
2022-11-21T09:50:20.725Z,5.35
2022-11-21T09:55:34.446Z,7.28
2022-11-21T09:58:03.455Z,4.28
2022-11-21T10:00:30.417Z,4.10
2022-11-21T10:02:57.375Z,5.20
2022-11-21T10:05:33.617Z,4.65
2022-11-21T10:08:07.417Z,3.35
2022-11-21T10:10:33.815Z,3.90
2022-11-21T10:13:11.147Z,4.20
2022-11-21T10:16:06.820Z,3.63
2022-11-21T10:18:58.295Z,4.22
2022-11-21T10:21:24.620Z,7.13
2022-11-21T10:24:29.058Z,8.48
2022-11-21T10:27:02.480Z,4.38
2022-11-21T10:29:39.102Z,3.88
2022-11-21T10:32:22.922Z,3.70
